createdAt,value
2023-11-30T00:00:31.752Z,100187.00
2023-11-30T00:02:58.580Z,100184.00
2023-11-30T00:05:25.356Z,100181.00
2023-11-30T00:07:53.233Z,100190.00
2023-11-30T00:10:20.056Z,100185.00
2023-11-30T00:12:46.775Z,100178.00
2023-11-30T00:15:13.507Z,100177.00
2023-11-30T00:17:40.335Z,100177.00
2023-11-30T00:20:07.894Z,100171.00
2023-11-30T00:22:34.602Z,100172.00
2023-11-30T00:25:01.236Z,100173.00
2023-11-30T00:27:27.993Z,100171.00
2023-11-30T00:29:54.776Z,100164.00
2023-11-30T00:32:21.456Z,100164.00
2023-11-30T00:34:48.166Z,100159.00
2023-11-30T00:37:17.003Z,100165.00
2023-11-30T00:39:43.614Z,100156.00
2023-11-30T00:42:10.510Z,100147.00
2023-11-30T00:44:37.220Z,100154.00
2023-11-30T00:47:04.070Z,100152.00
2023-11-30T00:49:30.806Z,100147.00
2023-11-30T00:51:57.522Z,100145.00
2023-11-30T00:54:24.278Z,100141.00
2023-11-30T00:56:51.069Z,100126.00
2023-11-30T00:59:17.761Z,100140.00
2023-11-30T01:01:44.777Z,100132.00
2023-11-30T01:04:11.548Z,100127.00
2023-11-30T01:06:40.336Z,100127.00
2023-11-30T01:09:08.402Z,100127.00
2023-11-30T01:11:35.408Z,100121.00
2023-11-30T01:14:02.235Z,100125.00
2023-11-30T01:16:28.940Z,100132.00
2023-11-30T01:18:55.900Z,100128.00
2023-11-30T01:21:22.863Z,100135.00
2023-11-30T01:23:49.616Z,100133.00
2023-11-30T01:26:16.356Z,100135.00
2023-11-30T01:28:43.067Z,100131.00
2023-11-30T01:31:09.808Z,100136.00
2023-11-30T01:33:40.059Z,100147.00
2023-11-30T01:36:07.146Z,100142.00
2023-11-30T01:38:33.882Z,100141.00
2023-11-30T01:41:00.675Z,100130.00
2023-11-30T01:43:28.505Z,100135.00
2023-11-30T01:46:02.783Z,100137.00
2023-11-30T01:48:31.675Z,100124.00
2023-11-30T01:51:01.065Z,100131.00
2023-11-30T01:53:31.008Z,100134.00
2023-11-30T01:55:57.943Z,100122.00
2023-11-30T01:58:24.579Z,100118.00
2023-11-30T02:00:51.985Z,100130.00
2023-11-30T02:03:18.917Z,100123.00
2023-11-30T02:05:48.243Z,100128.00
2023-11-30T02:08:15.110Z,100116.00
2023-11-30T02:10:41.923Z,100123.00
2023-11-30T02:13:09.207Z,100132.00
2023-11-30T02:15:35.929Z,100134.00
2023-11-30T02:18:03.112Z,100124.00
2023-11-30T02:20:29.822Z,100125.00
2023-11-30T02:22:56.600Z,100126.00
2023-11-30T02:25:26.461Z,100129.00
2023-11-30T02:27:53.121Z,100130.00
2023-11-30T02:30:20.070Z,100121.00
2023-11-30T02:32:46.947Z,100118.00
2023-11-30T02:35:13.817Z,100114.00
2023-11-30T02:37:40.478Z,100104.00
2023-11-30T02:40:10.378Z,100111.00
2023-11-30T02:42:37.114Z,100109.00
2023-11-30T02:45:04.231Z,100107.00
2023-11-30T02:47:31.092Z,100111.00
2023-11-30T02:49:57.740Z,100101.00
2023-11-30T02:52:24.518Z,100095.00
2023-11-30T02:54:51.327Z,100111.00
2023-11-30T02:57:18.068Z,100104.00
2023-11-30T02:59:44.949Z,100107.00
2023-11-30T03:02:12.535Z,100103.00
2023-11-30T03:04:39.300Z,100108.00
2023-11-30T03:07:06.010Z,100108.00
2023-11-30T03:09:32.780Z,100108.00
2023-11-30T03:11:59.562Z,100102.00
2023-11-30T03:14:26.220Z,100103.00
2023-11-30T03:16:52.935Z,100096.00
2023-11-30T03:19:19.765Z,100099.00
2023-11-30T03:21:46.687Z,100102.00
2023-11-30T03:24:13.990Z,100097.00
2023-11-30T03:26:42.966Z,100104.00
2023-11-30T03:29:09.732Z,100103.00
2023-11-30T03:31:40.382Z,100098.00
2023-11-30T03:34:07.660Z,100090.00
2023-11-30T03:36:34.639Z,100098.00
2023-11-30T03:39:01.467Z,100094.00
2023-11-30T03:41:28.258Z,100105.00
2023-11-30T03:43:54.980Z,100110.00
2023-11-30T03:46:25.645Z,100114.00
2023-11-30T03:48:53.851Z,100116.00
2023-11-30T03:51:21.263Z,100114.00
2023-11-30T03:53:48.282Z,100110.00
2023-11-30T03:56:18.332Z,100117.00
2023-11-30T03:58:45.009Z,100114.00
2023-11-30T04:01:11.709Z,100107.00
2023-11-30T04:03:38.507Z,100113.00
2023-11-30T04:06:05.439Z,100114.00
2023-11-30T04:08:34.795Z,100123.00
2023-11-30T04:11:01.464Z,100113.00
2023-11-30T04:13:28.114Z,100118.00
2023-11-30T04:15:57.098Z,100130.00
2023-11-30T04:18:24.080Z,100122.00
2023-11-30T04:20:51.112Z,100125.00
2023-11-30T04:23:18.108Z,100127.00
2023-11-30T04:25:47.333Z,100128.00
2023-11-30T04:28:14.196Z,100119.00
2023-11-30T04:30:41.105Z,100120.00
2023-11-30T04:33:08.058Z,100113.00
2023-11-30T04:35:35.320Z,100105.00
2023-11-30T04:38:04.481Z,100109.00
2023-11-30T04:40:31.202Z,100102.00
2023-11-30T04:42:58.053Z,100094.00
2023-11-30T04:45:24.985Z,100093.00
2023-11-30T04:47:54.193Z,100096.00
2023-11-30T04:50:21.043Z,100089.00
2023-11-30T04:52:47.839Z,100082.00
2023-11-30T04:55:17.534Z,100083.00
2023-11-30T04:57:44.195Z,100085.00
2023-11-30T05:00:11.518Z,100092.00
2023-11-30T05:02:41.860Z,100078.00
2023-11-30T05:05:10.918Z,100083.00
2023-11-30T05:07:37.705Z,100092.00
2023-11-30T05:10:04.963Z,100084.00
2023-11-30T05:12:31.774Z,100089.00
2023-11-30T05:14:58.676Z,100097.00
2023-11-30T05:17:25.424Z,100103.00
2023-11-30T05:19:52.105Z,100103.00
2023-11-30T05:22:18.866Z,100105.00
2023-11-30T05:24:45.643Z,100103.00
2023-11-30T05:27:12.317Z,100092.00
2023-11-30T05:29:39.020Z,100091.00
2023-11-30T05:32:05.935Z,100089.00
2023-11-30T05:34:32.719Z,100098.00
2023-11-30T05:36:59.429Z,100094.00
2023-11-30T05:39:26.093Z,100102.00
2023-11-30T05:41:52.854Z,100102.00
2023-11-30T05:44:20.304Z,100104.00
2023-11-30T05:46:48.039Z,100107.00
2023-11-30T05:49:14.747Z,100101.00
2023-11-30T05:51:41.568Z,100109.00
2023-11-30T05:54:08.870Z,100109.00
2023-11-30T05:56:35.787Z,100105.00
2023-11-30T05:59:04.094Z,100106.00
2023-11-30T06:01:30.810Z,100121.00
2023-11-30T06:03:57.953Z,100108.00
2023-11-30T06:06:27.182Z,100105.00
2023-11-30T06:08:53.994Z,100106.00
2023-11-30T06:11:20.751Z,100105.00
2023-11-30T06:13:47.528Z,100107.00
2023-11-30T06:16:14.321Z,100113.00
2023-11-30T06:18:41.076Z,100109.00
2023-11-30T06:21:10.774Z,100111.00
2023-11-30T06:23:38.657Z,100108.00
2023-11-30T06:26:08.059Z,100121.00
2023-11-30T06:28:34.877Z,100132.00
2023-11-30T06:31:01.911Z,100124.00
2023-11-30T06:33:29.631Z,100121.00
2023-11-30T06:35:56.382Z,100123.00
2023-11-30T06:38:23.019Z,100114.00
2023-11-30T06:40:50.244Z,100114.00
2023-11-30T06:43:17.098Z,100116.00
2023-11-30T06:45:44.437Z,100108.00
2023-11-30T06:48:11.384Z,100116.00
2023-11-30T06:50:38.229Z,100124.00
2023-11-30T06:53:04.975Z,100127.00
2023-11-30T06:55:31.677Z,100135.00
2023-11-30T06:57:58.420Z,100124.00
2023-11-30T07:00:25.184Z,100118.00
2023-11-30T07:02:51.947Z,100131.00
2023-11-30T07:05:18.793Z,100124.00
2023-11-30T07:07:45.537Z,100128.00
2023-11-30T07:10:14.095Z,100132.00
2023-11-30T07:12:42.264Z,100124.00
2023-11-30T07:15:09.728Z,100124.00
2023-11-30T07:17:36.529Z,100125.00
2023-11-30T07:20:03.448Z,100111.00
2023-11-30T07:22:30.721Z,100115.00
2023-11-30T07:24:57.750Z,100111.00
2023-11-30T07:27:25.023Z,100114.00
2023-11-30T07:29:51.881Z,100117.00
2023-11-30T07:32:18.686Z,100124.00
2023-11-30T07:34:46.099Z,100124.00
2023-11-30T07:37:19.180Z,100121.00
2023-11-30T07:39:46.167Z,100120.00
2023-11-30T07:42:25.888Z,100121.00
2023-11-30T07:44:58.974Z,100120.00
2023-11-30T07:47:27.845Z,100125.00
2023-11-30T07:49:55.371Z,100115.00
2023-11-30T07:52:22.447Z,100118.00
2023-11-30T07:54:49.200Z,100121.00
2023-11-30T07:57:17.427Z,100119.00
2023-11-30T07:59:44.177Z,100120.00
2023-11-30T08:02:10.901Z,100116.00
2023-11-30T08:04:37.770Z,100131.00
2023-11-30T08:07:04.959Z,100123.00
2023-11-30T08:09:32.349Z,100134.00
2023-11-30T08:11:59.158Z,100132.00
2023-11-30T08:14:25.881Z,100134.00
2023-11-30T08:16:52.558Z,100134.00
2023-11-30T08:19:19.293Z,100143.00
2023-11-30T08:21:48.430Z,100138.00
2023-11-30T08:24:15.205Z,100135.00
2023-11-30T08:26:43.252Z,100141.00
2023-11-30T08:29:10.049Z,100136.00
2023-11-30T08:31:37.916Z,100140.00
2023-11-30T08:34:04.809Z,100140.00
2023-11-30T08:36:31.610Z,100141.00
2023-11-30T08:38:58.458Z,100140.00
2023-11-30T08:41:25.306Z,100147.00
2023-11-30T08:43:52.158Z,100147.00
2023-11-30T08:46:19.404Z,100146.00
2023-11-30T08:48:46.569Z,100150.00
2023-11-30T08:51:15.788Z,100150.00
2023-11-30T08:53:42.567Z,100147.00
2023-11-30T08:56:09.728Z,100143.00
2023-11-30T08:58:37.039Z,100151.00
2023-11-30T09:01:05.004Z,100152.00
2023-11-30T09:03:31.861Z,100155.00
2023-11-30T09:05:58.675Z,100160.00
2023-11-30T09:08:25.501Z,100161.00
2023-11-30T09:10:52.272Z,100163.00
2023-11-30T09:13:19.045Z,100172.00
2023-11-30T09:15:45.759Z,100172.00
2023-11-30T09:18:12.790Z,100168.00
2023-11-30T09:20:39.583Z,100167.00
2023-11-30T09:23:06.526Z,100170.00
2023-11-30T09:25:34.265Z,100167.00
2023-11-30T09:28:01.221Z,100172.00
2023-11-30T09:30:28.008Z,100163.00
2023-11-30T09:32:54.873Z,100167.00
2023-11-30T09:35:25.386Z,100165.00
2023-11-30T09:37:52.164Z,100168.00
2023-11-30T09:40:18.967Z,100169.00
2023-11-30T09:42:46.692Z,100175.00
2023-11-30T09:45:15.852Z,100182.00
2023-11-30T09:47:42.825Z,100186.00
2023-11-30T09:50:09.773Z,100188.00
2023-11-30T09:52:38.677Z,100192.00
2023-11-30T09:55:12.759Z,100182.00
2023-11-30T09:57:41.168Z,100182.00
2023-11-30T10:00:08.841Z,100188.00
2023-11-30T10:02:35.568Z,100193.00
2023-11-30T10:05:03.344Z,100189.00
2023-11-30T10:07:30.547Z,100181.00
2023-11-30T10:09:57.308Z,100180.00
2023-11-30T10:12:25.655Z,100172.00
2023-11-30T10:15:01.106Z,100176.00
2023-11-30T10:17:29.493Z,100177.00
2023-11-30T10:19:57.129Z,100180.00
2023-11-30T10:22:24.146Z,100176.00
2023-11-30T10:24:51.685Z,100175.00
2023-11-30T10:27:25.918Z,100174.00
2023-11-30T10:30:00.985Z,100174.00
2023-11-30T10:32:27.828Z,100171.00
2023-11-30T10:35:00.402Z,100178.00
2023-11-30T10:37:30.945Z,100177.00
2023-11-30T10:40:02.253Z,100180.00
2023-11-30T10:42:29.678Z,100176.00
2023-11-30T10:45:01.299Z,100167.00
2023-11-30T10:47:29.607Z,100183.00
2023-11-30T10:49:59.306Z,100176.00
2023-11-30T10:52:27.046Z,100179.00
2023-11-30T10:55:02.512Z,100187.00
2023-11-30T10:57:29.260Z,100198.00
2023-11-30T10:59:59.822Z,100187.00
2023-11-30T11:02:42.844Z,100196.00
2023-11-30T11:05:11.491Z,100182.00
2023-11-30T11:07:38.452Z,100175.00
2023-11-30T11:10:09.869Z,100181.00
2023-11-30T11:12:41.643Z,100180.00
2023-11-30T11:15:14.408Z,100172.00
2023-11-30T11:17:51.261Z,100178.00
2023-11-30T11:20:25.796Z,100171.00
2023-11-30T11:23:05.476Z,100172.00
2023-11-30T11:25:50.448Z,100161.00
2023-11-30T11:28:18.587Z,100168.00
2023-11-30T11:30:49.935Z,100167.00
2023-11-30T11:33:19.915Z,100173.00
2023-11-30T11:35:47.423Z,100165.00
2023-11-30T11:38:14.179Z,100169.00
2023-11-30T11:40:42.314Z,100172.00
2023-11-30T11:43:09.492Z,100170.00
2023-11-30T11:45:38.192Z,100156.00
2023-11-30T11:48:05.342Z,100164.00
2023-11-30T11:50:32.040Z,100164.00
2023-11-30T11:53:04.539Z,100165.00
2023-11-30T11:55:31.938Z,100159.00
2023-11-30T11:57:58.887Z,100160.00
2023-11-30T12:00:26.978Z,100158.00
2023-11-30T12:03:08.757Z,100155.00
2023-11-30T12:05:47.459Z,100150.00
2023-11-30T12:08:14.326Z,100152.00
2023-11-30T12:10:45.487Z,100160.00
2023-11-30T12:13:13.842Z,100154.00
2023-11-30T12:15:41.529Z,100152.00
2023-11-30T12:18:08.803Z,100154.00
2023-11-30T12:20:36.400Z,100156.00
2023-11-30T12:23:03.608Z,100160.00
2023-11-30T12:25:32.832Z,100159.00
2023-11-30T12:27:59.514Z,100144.00
2023-11-30T12:30:26.597Z,100155.00
2023-11-30T12:32:53.466Z,100148.00
2023-11-30T12:35:20.386Z,100158.00
2023-11-30T12:37:49.610Z,100167.00
2023-11-30T12:40:16.611Z,100157.00
2023-11-30T12:42:43.738Z,100160.00
2023-11-30T12:45:11.016Z,100162.00
2023-11-30T12:47:41.550Z,100161.00
2023-11-30T12:50:10.289Z,100156.00
2023-11-30T12:52:37.359Z,100161.00
2023-11-30T12:55:05.808Z,100159.00
2023-11-30T12:57:36.265Z,100164.00
2023-11-30T13:00:10.930Z,100162.00
2023-11-30T13:02:38.023Z,100164.00
2023-11-30T13:05:05.358Z,100162.00
2023-11-30T13:07:32.176Z,100166.00
2023-11-30T13:09:58.926Z,100159.00
2023-11-30T13:12:27.866Z,100164.00
2023-11-30T13:14:57.389Z,100170.00
2023-11-30T13:17:24.636Z,100174.00
2023-11-30T13:19:51.455Z,100172.00
2023-11-30T13:22:18.244Z,100179.00
2023-11-30T13:24:45.078Z,100186.00
2023-11-30T13:27:14.873Z,100176.00
2023-11-30T13:29:41.738Z,100179.00
2023-11-30T13:32:08.427Z,100185.00
2023-11-30T13:34:36.464Z,100182.00
2023-11-30T13:37:03.247Z,100175.00
2023-11-30T13:39:30.042Z,100179.00
2023-11-30T13:41:58.478Z,100187.00
2023-11-30T13:44:25.948Z,100184.00
2023-11-30T13:46:52.967Z,100183.00
2023-11-30T13:49:21.328Z,100189.00
2023-11-30T13:51:49.619Z,100182.00
2023-11-30T13:54:17.370Z,100179.00
2023-11-30T13:56:44.746Z,100179.00
2023-11-30T13:59:12.544Z,100177.00
2023-11-30T14:01:39.509Z,100177.00
2023-11-30T14:04:09.283Z,100184.00
2023-11-30T14:06:37.907Z,100177.00
2023-11-30T14:09:05.567Z,100162.00
2023-11-30T14:11:35.766Z,100167.00
2023-11-30T14:14:02.436Z,100166.00
2023-11-30T14:16:29.172Z,100168.00
2023-11-30T14:18:55.926Z,100173.00
2023-11-30T14:21:22.807Z,100171.00
2023-11-30T14:23:50.396Z,100166.00
2023-11-30T14:26:17.155Z,100173.00
2023-11-30T14:28:49.176Z,100171.00
2023-11-30T14:31:19.338Z,100170.00
2023-11-30T14:33:46.788Z,100179.00
2023-11-30T14:36:14.075Z,100176.00
2023-11-30T14:38:41.852Z,100171.00
2023-11-30T14:41:08.931Z,100174.00
2023-11-30T14:43:35.691Z,100166.00
2023-11-30T14:46:03.144Z,100176.00
2023-11-30T14:48:29.951Z,100174.00
2023-11-30T14:50:56.687Z,100177.00
2023-11-30T14:53:23.349Z,100178.00
2023-11-30T14:55:50.092Z,100179.00
2023-11-30T14:58:16.822Z,100183.00
2023-11-30T15:00:45.991Z,100177.00
2023-11-30T15:03:13.376Z,100189.00
2023-11-30T15:05:40.254Z,100188.00
2023-11-30T15:08:07.650Z,100192.00
2023-11-30T15:10:36.817Z,100191.00
2023-11-30T15:13:03.647Z,100186.00
2023-11-30T15:15:30.401Z,100198.00
2023-11-30T15:17:57.206Z,100194.00
2023-11-30T15:20:25.279Z,100199.00
2023-11-30T15:22:52.146Z,100197.00
2023-11-30T15:25:19.980Z,100197.00
2023-11-30T15:27:48.400Z,100195.00
2023-11-30T15:30:16.516Z,100196.00
2023-11-30T15:32:43.936Z,100203.00
2023-11-30T15:35:10.968Z,100197.00
2023-11-30T15:37:38.119Z,100193.00
2023-11-30T15:40:09.894Z,100198.00
2023-11-30T15:42:37.710Z,100196.00
2023-11-30T15:45:05.343Z,100203.00
2023-11-30T15:47:32.228Z,100195.00
2023-11-30T15:49:58.980Z,100196.00
2023-11-30T15:52:26.371Z,100202.00
2023-11-30T15:54:53.104Z,100204.00
2023-11-30T15:57:21.979Z,100204.00
2023-11-30T15:59:48.811Z,100203.00
2023-11-30T16:02:15.975Z,100203.00
2023-11-30T16:04:43.484Z,100195.00
2023-11-30T16:07:10.298Z,100200.00
2023-11-30T16:09:37.159Z,100195.00
2023-11-30T16:12:04.178Z,100192.00
2023-11-30T16:14:30.879Z,100197.00
2023-11-30T16:16:57.764Z,100200.00
2023-11-30T16:19:25.448Z,100198.00
2023-11-30T16:21:54.664Z,100202.00
2023-11-30T16:24:21.433Z,100201.00
2023-11-30T16:26:48.203Z,100201.00
2023-11-30T16:29:14.961Z,100202.00
2023-11-30T16:31:41.680Z,100202.00
2023-11-30T16:34:08.429Z,100209.00
2023-11-30T16:36:35.229Z,100199.00
2023-11-30T16:39:02.036Z,100198.00
2023-11-30T16:41:28.785Z,100212.00
2023-11-30T16:43:55.518Z,100211.00
2023-11-30T16:46:24.759Z,100206.00
2023-11-30T16:48:58.113Z,100206.00
2023-11-30T16:51:25.857Z,100208.00
2023-11-30T16:53:52.894Z,100207.00
2023-11-30T16:56:25.164Z,100206.00
2023-11-30T16:58:54.499Z,100203.00
2023-11-30T17:01:22.596Z,100205.00
2023-11-30T17:03:49.738Z,100203.00
2023-11-30T17:06:16.587Z,100208.00
2023-11-30T17:08:43.345Z,100205.00
2023-11-30T17:11:10.102Z,100199.00
2023-11-30T17:13:36.790Z,100204.00
2023-11-30T17:16:06.346Z,100207.00
2023-11-30T17:18:35.393Z,100211.00
2023-11-30T17:21:02.132Z,100214.00
2023-11-30T17:23:28.841Z,100215.00
2023-11-30T17:25:58.821Z,100224.00
2023-11-30T17:28:25.622Z,100214.00
2023-11-30T17:30:52.590Z,100220.00
2023-11-30T17:33:19.869Z,100218.00
2023-11-30T17:35:46.778Z,100224.00
2023-11-30T17:38:13.541Z,100230.00
2023-11-30T17:40:43.266Z,100235.00
2023-11-30T17:43:10.126Z,100235.00
2023-11-30T17:45:36.927Z,100241.00
2023-11-30T17:48:06.995Z,100241.00
2023-11-30T17:50:33.701Z,100247.00
2023-11-30T17:53:02.038Z,100251.00
2023-11-30T17:55:29.857Z,100256.00
2023-11-30T17:58:00.082Z,100257.00
2023-11-30T18:00:28.467Z,100258.00
2023-11-30T18:02:57.532Z,100256.00
2023-11-30T18:05:26.532Z,100256.00
2023-11-30T18:07:53.283Z,100261.00
2023-11-30T18:10:20.142Z,100260.00
2023-11-30T18:12:47.433Z,100260.00
2023-11-30T18:15:14.266Z,100260.00
2023-11-30T18:17:46.257Z,100268.00
2023-11-30T18:20:13.009Z,100256.00
2023-11-30T18:22:39.691Z,100267.00
2023-11-30T18:25:06.596Z,100278.00
2023-11-30T18:27:33.333Z,100266.00
2023-11-30T18:30:00.189Z,100272.00
2023-11-30T18:32:27.108Z,100274.00
2023-11-30T18:34:56.427Z,100276.00
2023-11-30T18:37:23.216Z,100285.00
2023-11-30T18:39:49.924Z,100279.00
2023-11-30T18:42:16.674Z,100285.00
2023-11-30T18:44:45.978Z,100284.00
2023-11-30T18:47:17.443Z,100280.00
2023-11-30T18:49:44.136Z,100279.00
2023-11-30T18:52:10.819Z,100278.00
2023-11-30T18:54:37.595Z,100274.00
2023-11-30T18:57:04.669Z,100276.00
2023-11-30T18:59:32.331Z,100269.00
2023-11-30T19:01:59.774Z,100270.00
2023-11-30T19:04:26.630Z,100273.00
2023-11-30T19:06:53.342Z,100272.00
2023-11-30T19:09:20.159Z,100266.00
2023-11-30T19:11:46.909Z,100269.00
2023-11-30T19:14:13.689Z,100280.00
2023-11-30T19:16:41.725Z,100278.00
2023-11-30T19:19:09.697Z,100280.00
2023-11-30T19:21:41.612Z,100277.00
2023-11-30T19:24:09.271Z,100273.00
2023-11-30T19:26:36.094Z,100274.00
2023-11-30T19:29:05.780Z,100273.00
2023-11-30T19:31:32.688Z,100275.00
2023-11-30T19:33:59.519Z,100282.00
2023-11-30T19:36:26.208Z,100280.00
2023-11-30T19:38:52.929Z,100281.00
2023-11-30T19:41:19.596Z,100284.00
2023-11-30T19:43:46.281Z,100285.00
2023-11-30T19:46:16.675Z,100283.00
2023-11-30T19:48:45.700Z,100281.00
2023-11-30T19:51:17.057Z,100287.00
2023-11-30T19:53:43.860Z,100276.00
2023-11-30T19:56:15.776Z,100289.00
2023-11-30T19:58:44.150Z,100287.00
2023-11-30T20:01:20.001Z,100293.00
2023-11-30T20:03:46.794Z,100288.00
2023-11-30T20:06:16.489Z,100288.00
2023-11-30T20:08:43.477Z,100290.00
2023-11-30T20:11:15.025Z,100294.00
2023-11-30T20:13:42.428Z,100292.00
2023-11-30T20:16:12.427Z,100299.00
2023-11-30T20:18:39.514Z,100299.00
2023-11-30T20:21:07.185Z,100300.00
2023-11-30T20:23:33.944Z,100310.00
2023-11-30T20:26:01.536Z,100306.00
2023-11-30T20:28:28.259Z,100304.00
2023-11-30T20:30:54.986Z,100303.00
2023-11-30T20:33:21.680Z,100309.00
2023-11-30T20:35:50.901Z,100311.00
2023-11-30T20:38:20.190Z,100316.00
2023-11-30T20:40:47.059Z,100306.00
2023-11-30T20:43:13.747Z,100301.00
2023-11-30T20:45:40.456Z,100290.00
2023-11-30T20:48:07.266Z,100291.00
2023-11-30T20:50:33.968Z,100280.00
2023-11-30T20:53:02.990Z,100288.00
2023-11-30T20:55:29.980Z,100293.00
2023-11-30T20:57:56.828Z,100300.00
2023-11-30T21:00:23.703Z,100293.00
2023-11-30T21:02:50.664Z,100296.00
2023-11-30T21:05:19.046Z,100289.00
2023-11-30T21:07:46.440Z,100294.00
2023-11-30T21:10:15.182Z,100292.00
2023-11-30T21:12:42.072Z,100293.00
2023-11-30T21:15:09.127Z,100288.00
2023-11-30T21:17:41.863Z,100287.00
2023-11-30T21:20:08.935Z,100295.00
2023-11-30T21:22:35.667Z,100283.00
2023-11-30T21:25:02.851Z,100293.00
2023-11-30T21:27:29.584Z,100287.00
2023-11-30T21:29:56.302Z,100294.00
2023-11-30T21:32:23.062Z,100292.00
2023-11-30T21:34:52.125Z,100294.00
2023-11-30T21:37:18.881Z,100300.00
2023-11-30T21:39:45.663Z,100306.00
2023-11-30T21:42:12.411Z,100309.00
2023-11-30T21:44:40.336Z,100311.00
2023-11-30T21:47:11.615Z,100317.00
2023-11-30T21:49:40.794Z,100304.00
2023-11-30T21:52:08.226Z,100310.00
2023-11-30T21:54:37.276Z,100298.00
2023-11-30T21:57:04.112Z,100311.00
2023-11-30T21:59:31.732Z,100316.00
2023-11-30T22:01:58.667Z,100312.00
2023-11-30T22:04:25.466Z,100314.00
2023-11-30T22:06:52.344Z,100314.00
2023-11-30T22:09:19.193Z,100326.00
2023-11-30T22:11:46.133Z,100330.00
2023-11-30T22:14:12.915Z,100318.00
2023-11-30T22:16:40.854Z,100342.00
2023-11-30T22:19:07.682Z,100338.00
2023-11-30T22:21:34.521Z,100344.00
2023-11-30T22:24:01.254Z,100330.00
2023-11-30T22:26:28.832Z,100336.00
2023-11-30T22:28:57.043Z,100341.00
2023-11-30T22:31:25.889Z,100337.00
2023-11-30T22:33:52.601Z,100335.00
2023-11-30T22:36:19.327Z,100338.00
2023-11-30T22:38:46.631Z,100321.00
2023-11-30T22:41:14.275Z,100318.00
2023-11-30T22:43:41.639Z,100305.00
2023-11-30T22:46:19.107Z,100314.00
2023-11-30T22:48:52.179Z,100312.00
2023-11-30T22:51:19.381Z,100317.00
2023-11-30T22:53:48.296Z,100312.00
2023-11-30T22:56:21.649Z,100312.00
2023-11-30T22:58:48.478Z,100319.00
2023-11-30T23:01:16.740Z,100321.00
2023-11-30T23:03:46.900Z,100321.00
2023-11-30T23:06:14.595Z,100313.00
2023-11-30T23:08:41.376Z,100317.00
2023-11-30T23:11:08.937Z,100317.00
2023-11-30T23:13:36.408Z,100320.00
2023-11-30T23:16:03.971Z,100318.00
2023-11-30T23:18:31.858Z,100316.00
2023-11-30T23:20:58.938Z,100309.00
2023-11-30T23:23:25.742Z,100317.00
2023-11-30T23:25:52.481Z,100312.00
2023-11-30T23:28:19.126Z,100316.00
2023-11-30T23:30:48.748Z,100310.00
2023-11-30T23:33:16.178Z,100318.00
2023-11-30T23:35:45.278Z,100318.00
2023-11-30T23:38:11.888Z,100326.00
2023-11-30T23:40:38.608Z,100338.00
2023-11-30T23:43:05.984Z,100335.00
2023-11-30T23:45:32.683Z,100337.00
2023-11-30T23:47:59.561Z,100334.00
2023-11-30T23:50:28.838Z,100332.00
2023-11-30T23:52:55.517Z,100333.00
2023-11-30T23:55:22.191Z,100334.00
2023-11-30T23:57:48.910Z,100335.00
